sensor_id;sensor_type;location;lat;lon;timestamp;P1;durP1;ratioP1;P2;durP2;ratioP2
56657;SDS011;42530;52.240;19.354;2022-12-08T00:00:53;14.80;;;9.02;;
56657;SDS011;42530;52.240;19.354;2022-12-08T00:03:18;12.15;;;9.25;;
56657;SDS011;42530;52.240;19.354;2022-12-08T00:05:45;9.07;;;6.88;;
56657;SDS011;42530;52.240;19.354;2022-12-08T00:08:30;13.10;;;6.30;;
56657;SDS011;42530;52.240;19.354;2022-12-08T00:11:14;11.80;;;7.07;;
56657;SDS011;42530;52.240;19.354;2022-12-08T00:13:40;8.60;;;7.60;;
56657;SDS011;42530;52.240;19.354;2022-12-08T00:16:06;11.38;;;8.40;;
56657;SDS011;42530;52.240;19.354;2022-12-08T00:18:33;10.68;;;8.27;;
56657;SDS011;42530;52.240;19.354;2022-12-08T00:20:58;9.50;;;8.52;;
56657;SDS011;42530;52.240;19.354;2022-12-08T00:23:24;8.25;;;7.45;;
56657;SDS011;42530;52.240;19.354;2022-12-08T00:25:50;8.75;;;7.95;;
56657;SDS011;42530;52.240;19.354;2022-12-08T00:28:15;8.68;;;7.85;;
56657;SDS011;42530;52.240;19.354;2022-12-08T00:30:42;8.70;;;7.95;;
56657;SDS011;42530;52.240;19.354;2022-12-08T00:33:07;8.45;;;7.28;;
56657;SDS011;42530;52.240;19.354;2022-12-08T00:35:33;8.73;;;7.47;;
56657;SDS011;42530;52.240;19.354;2022-12-08T00:37:59;9.48;;;8.57;;
56657;SDS011;42530;52.240;19.354;2022-12-08T00:40:25;9.13;;;6.93;;
56657;SDS011;42530;52.240;19.354;2022-12-08T00:42:50;12.77;;;9.30;;
56657;SDS011;42530;52.240;19.354;2022-12-08T00:45:16;9.02;;;8.13;;
56657;SDS011;42530;52.240;19.354;2022-12-08T00:47:41;10.27;;;9.23;;
56657;SDS011;42530;52.240;19.354;2022-12-08T00:50:07;14.82;;;8.80;;
56657;SDS011;42530;52.240;19.354;2022-12-08T00:52:33;9.85;;;8.95;;
56657;SDS011;42530;52.240;19.354;2022-12-08T00:54:58;12.40;;;9.68;;
56657;SDS011;42530;52.240;19.354;2022-12-08T00:57:24;8.05;;;7.25;;
56657;SDS011;42530;52.240;19.354;2022-12-08T00:59:49;11.00;;;8.63;;
56657;SDS011;42530;52.240;19.354;2022-12-08T01:02:15;9.38;;;8.43;;
56657;SDS011;42530;52.240;19.354;2022-12-08T01:04:40;9.05;;;7.90;;
56657;SDS011;42530;52.240;19.354;2022-12-08T01:07:06;8.57;;;7.63;;
56657;SDS011;42530;52.240;19.354;2022-12-08T01:09:32;9.23;;;8.52;;
56657;SDS011;42530;52.240;19.354;2022-12-08T01:11:58;9.52;;;8.52;;
56657;SDS011;42530;52.240;19.354;2022-12-08T01:14:23;9.18;;;8.30;;
56657;SDS011;42530;52.240;19.354;2022-12-08T01:16:49;11.00;;;9.90;;
56657;SDS011;42530;52.240;19.354;2022-12-08T01:19:15;10.68;;;9.57;;
56657;SDS011;42530;52.240;19.354;2022-12-08T01:21:42;11.30;;;9.98;;
56657;SDS011;42530;52.240;19.354;2022-12-08T01:24:12;10.18;;;9.30;;
56657;SDS011;42530;52.240;19.354;2022-12-08T01:26:39;11.98;;;9.85;;
56657;SDS011;42530;52.240;19.354;2022-12-08T01:29:05;12.13;;;8.40;;
56657;SDS011;42530;52.240;19.354;2022-12-08T01:31:31;11.00;;;9.80;;
56657;SDS011;42530;52.240;19.354;2022-12-08T01:33:56;10.30;;;9.30;;
56657;SDS011;42530;52.240;19.354;2022-12-08T01:36:27;10.60;;;9.68;;
56657;SDS011;42530;52.240;19.354;2022-12-08T01:38:55;11.18;;;10.10;;
56657;SDS011;42530;52.240;19.354;2022-12-08T01:41:22;10.48;;;9.30;;
56657;SDS011;42530;52.240;19.354;2022-12-08T01:46:35;10.88;;;9.00;;
56657;SDS011;42530;52.240;19.354;2022-12-08T01:49:08;12.20;;;10.95;;
56657;SDS011;42530;52.240;19.354;2022-12-08T01:51:42;17.35;;;14.40;;
56657;SDS011;42530;52.240;19.354;2022-12-08T01:54:19;12.93;;;11.70;;
56657;SDS011;42530;52.240;19.354;2022-12-08T01:57:07;14.90;;;13.30;;
56657;SDS011;42530;52.240;19.354;2022-12-08T01:59:38;10.85;;;9.82;;
56657;SDS011;42530;52.240;19.354;2022-12-08T02:02:10;12.02;;;10.82;;
56657;SDS011;42530;52.240;19.354;2022-12-08T02:04:37;13.50;;;12.25;;
56657;SDS011;42530;52.240;19.354;2022-12-08T02:07:03;15.13;;;13.82;;
56657;SDS011;42530;52.240;19.354;2022-12-08T02:09:30;11.93;;;10.73;;
56657;SDS011;42530;52.240;19.354;2022-12-08T02:11:56;15.48;;;13.85;;
56657;SDS011;42530;52.240;19.354;2022-12-08T02:14:24;13.13;;;11.88;;
56657;SDS011;42530;52.240;19.354;2022-12-08T02:28:08;13.45;;;11.43;;
56657;SDS011;42530;52.240;19.354;2022-12-08T02:30:59;13.20;;;11.82;;
56657;SDS011;42530;52.240;19.354;2022-12-08T02:33:54;11.05;;;9.93;;
56657;SDS011;42530;52.240;19.354;2022-12-08T02:36:27;12.07;;;10.98;;
56657;SDS011;42530;52.240;19.354;2022-12-08T02:39:07;10.88;;;9.98;;
56657;SDS011;42530;52.240;19.354;2022-12-08T02:44:59;13.70;;;10.23;;
56657;SDS011;42530;52.240;19.354;2022-12-08T02:47:32;11.95;;;10.45;;
56657;SDS011;42530;52.240;19.354;2022-12-08T02:49:58;13.98;;;10.80;;
56657;SDS011;42530;52.240;19.354;2022-12-08T02:54:50;11.05;;;10.00;;
56657;SDS011;42530;52.240;19.354;2022-12-08T03:00:24;12.20;;;11.10;;
56657;SDS011;42530;52.240;19.354;2022-12-08T03:08:14;12.35;;;11.25;;
56657;SDS011;42530;52.240;19.354;2022-12-08T03:10:50;11.68;;;10.48;;
56657;SDS011;42530;52.240;19.354;2022-12-08T03:13:22;11.73;;;10.70;;
56657;SDS011;42530;52.240;19.354;2022-12-08T03:15:54;11.48;;;10.52;;
56657;SDS011;42530;52.240;19.354;2022-12-08T03:18:22;14.40;;;10.25;;
56657;SDS011;42530;52.240;19.354;2022-12-08T03:20:52;11.60;;;10.60;;
56657;SDS011;42530;52.240;19.354;2022-12-08T03:23:18;11.82;;;10.80;;
56657;SDS011;42530;52.240;19.354;2022-12-08T03:26:29;13.82;;;12.43;;
56657;SDS011;42530;52.240;19.354;2022-12-08T03:28:37;15.63;;;12.25;;
56657;SDS011;42530;52.240;19.354;2022-12-08T03:31:04;14.85;;;11.88;;
56657;SDS011;42530;52.240;19.354;2022-12-08T03:33:34;18.63;;;12.07;;
56657;SDS011;42530;52.240;19.354;2022-12-08T03:36:03;16.45;;;15.00;;
56657;SDS011;42530;52.240;19.354;2022-12-08T03:38:41;14.93;;;13.55;;
56657;SDS011;42530;52.240;19.354;2022-12-08T03:41:09;14.35;;;12.95;;
56657;SDS011;42530;52.240;19.354;2022-12-08T03:43:47;14.88;;;10.18;;
56657;SDS011;42530;52.240;19.354;2022-12-08T03:46:17;13.68;;;12.02;;
56657;SDS011;42530;52.240;19.354;2022-12-08T03:48:44;11.05;;;10.05;;
56657;SDS011;42530;52.240;19.354;2022-12-08T03:51:10;10.38;;;9.40;;
56657;SDS011;42530;52.240;19.354;2022-12-08T03:53:36;12.88;;;11.48;;
56657;SDS011;42530;52.240;19.354;2022-12-08T03:56:05;13.07;;;11.25;;
56657;SDS011;42530;52.240;19.354;2022-12-08T03:58:40;12.43;;;11.10;;
56657;SDS011;42530;52.240;19.354;2022-12-08T04:01:06;13.00;;;11.77;;
56657;SDS011;42530;52.240;19.354;2022-12-08T04:03:32;15.85;;;11.93;;
56657;SDS011;42530;52.240;19.354;2022-12-08T04:05:58;10.57;;;9.73;;
56657;SDS011;42530;52.240;19.354;2022-12-08T04:08:23;12.52;;;10.77;;
56657;SDS011;42530;52.240;19.354;2022-12-08T04:10:48;16.02;;;14.40;;
56657;SDS011;42530;52.240;19.354;2022-12-08T04:13:14;13.52;;;12.43;;
56657;SDS011;42530;52.240;19.354;2022-12-08T04:15:43;15.65;;;13.10;;
56657;SDS011;42530;52.240;19.354;2022-12-08T04:18:09;12.55;;;11.40;;
56657;SDS011;42530;52.240;19.354;2022-12-08T04:20:37;15.32;;;11.98;;
56657;SDS011;42530;52.240;19.354;2022-12-08T04:23:04;14.15;;;11.95;;
56657;SDS011;42530;52.240;19.354;2022-12-08T04:25:29;15.80;;;14.13;;
56657;SDS011;42530;52.240;19.354;2022-12-08T04:27:55;13.63;;;12.23;;
56657;SDS011;42530;52.240;19.354;2022-12-08T04:30:20;14.13;;;12.70;;
56657;SDS011;42530;52.240;19.354;2022-12-08T04:32:46;17.80;;;14.77;;
56657;SDS011;42530;52.240;19.354;2022-12-08T04:35:11;14.15;;;12.65;;
56657;SDS011;42530;52.240;19.354;2022-12-08T04:37:37;16.80;;;12.95;;
56657;SDS011;42530;52.240;19.354;2022-12-08T04:40:02;16.83;;;14.68;;
56657;SDS011;42530;52.240;19.354;2022-12-08T04:42:28;17.67;;;14.95;;
56657;SDS011;42530;52.240;19.354;2022-12-08T04:44:54;16.42;;;14.52;;
56657;SDS011;42530;52.240;19.354;2022-12-08T04:47:19;14.77;;;13.38;;
56657;SDS011;42530;52.240;19.354;2022-12-08T04:49:46;13.73;;;12.30;;
56657;SDS011;42530;52.240;19.354;2022-12-08T04:52:12;18.33;;;14.32;;
56657;SDS011;42530;52.240;19.354;2022-12-08T04:54:37;16.25;;;14.63;;
56657;SDS011;42530;52.240;19.354;2022-12-08T04:57:03;18.33;;;14.88;;
56657;SDS011;42530;52.240;19.354;2022-12-08T04:59:28;21.08;;;16.85;;
56657;SDS011;42530;52.240;19.354;2022-12-08T05:01:54;18.25;;;15.70;;
56657;SDS011;42530;52.240;19.354;2022-12-08T05:04:19;15.85;;;14.18;;
56657;SDS011;42530;52.240;19.354;2022-12-08T05:06:45;19.88;;;15.27;;
56657;SDS011;42530;52.240;19.354;2022-12-08T05:09:10;18.02;;;13.45;;
56657;SDS011;42530;52.240;19.354;2022-12-08T05:11:36;21.83;;;15.75;;
56657;SDS011;42530;52.240;19.354;2022-12-08T05:14:08;17.02;;;14.95;;
56657;SDS011;42530;52.240;19.354;2022-12-08T05:16:36;15.45;;;13.90;;
56657;SDS011;42530;52.240;19.354;2022-12-08T05:19:02;16.30;;;12.88;;
56657;SDS011;42530;52.240;19.354;2022-12-08T05:21:28;13.10;;;11.75;;
56657;SDS011;42530;52.240;19.354;2022-12-08T05:23:54;16.20;;;14.27;;
56657;SDS011;42530;52.240;19.354;2022-12-08T05:26:19;16.80;;;12.45;;
56657;SDS011;42530;52.240;19.354;2022-12-08T05:28:45;14.40;;;12.70;;
56657;SDS011;42530;52.240;19.354;2022-12-08T05:31:11;15.35;;;13.82;;
56657;SDS011;42530;52.240;19.354;2022-12-08T05:33:37;17.50;;;15.43;;
56657;SDS011;42530;52.240;19.354;2022-12-08T05:36:03;18.75;;;16.48;;
56657;SDS011;42530;52.240;19.354;2022-12-08T05:38:29;17.02;;;15.00;;
56657;SDS011;42530;52.240;19.354;2022-12-08T05:40:54;19.83;;;16.90;;
56657;SDS011;42530;52.240;19.354;2022-12-08T05:43:20;16.95;;;15.45;;
56657;SDS011;42530;52.240;19.354;2022-12-08T05:45:45;16.00;;;14.07;;
56657;SDS011;42530;52.240;19.354;2022-12-08T05:48:10;18.23;;;16.35;;
56657;SDS011;42530;52.240;19.354;2022-12-08T05:50:36;21.35;;;15.23;;
56657;SDS011;42530;52.240;19.354;2022-12-08T05:53:02;18.00;;;14.38;;
56657;SDS011;42530;52.240;19.354;2022-12-08T05:55:27;18.05;;;16.30;;
56657;SDS011;42530;52.240;19.354;2022-12-08T05:57:53;22.90;;;17.80;;
56657;SDS011;42530;52.240;19.354;2022-12-08T06:00:18;18.95;;;15.65;;
56657;SDS011;42530;52.240;19.354;2022-12-08T06:02:45;20.08;;;18.13;;
56657;SDS011;42530;52.240;19.354;2022-12-08T06:05:10;17.80;;;15.80;;
56657;SDS011;42530;52.240;19.354;2022-12-08T06:07:36;20.15;;;17.63;;
56657;SDS011;42530;52.240;19.354;2022-12-08T06:10:02;27.27;;;19.80;;
56657;SDS011;42530;52.240;19.354;2022-12-08T06:12:28;21.58;;;17.15;;
56657;SDS011;42530;52.240;19.354;2022-12-08T06:14:54;20.50;;;18.35;;
56657;SDS011;42530;52.240;19.354;2022-12-08T06:17:20;19.60;;;16.92;;
56657;SDS011;42530;52.240;19.354;2022-12-08T06:19:46;24.08;;;19.75;;
56657;SDS011;42530;52.240;19.354;2022-12-08T06:22:11;24.25;;;21.75;;
56657;SDS011;42530;52.240;19.354;2022-12-08T06:24:36;21.48;;;18.25;;
56657;SDS011;42530;52.240;19.354;2022-12-08T06:27:02;21.88;;;18.63;;
56657;SDS011;42530;52.240;19.354;2022-12-08T06:29:28;20.13;;;17.70;;
56657;SDS011;42530;52.240;19.354;2022-12-08T06:31:53;23.75;;;19.00;;
56657;SDS011;42530;52.240;19.354;2022-12-08T06:34:19;23.10;;;19.17;;
56657;SDS011;42530;52.240;19.354;2022-12-08T06:36:44;32.45;;;19.58;;
56657;SDS011;42530;52.240;19.354;2022-12-08T06:39:10;30.75;;;19.65;;
56657;SDS011;42530;52.240;19.354;2022-12-08T06:41:35;30.75;;;19.33;;
56657;SDS011;42530;52.240;19.354;2022-12-08T06:44:21;24.58;;;21.20;;
56657;SDS011;42530;52.240;19.354;2022-12-08T06:46:47;34.55;;;30.10;;
56657;SDS011;42530;52.240;19.354;2022-12-08T06:49:12;48.88;;;34.80;;
56657;SDS011;42530;52.240;19.354;2022-12-08T06:51:38;30.85;;;25.75;;
56657;SDS011;42530;52.240;19.354;2022-12-08T06:54:03;32.38;;;27.13;;
56657;SDS011;42530;52.240;19.354;2022-12-08T06:56:28;35.08;;;30.10;;
56657;SDS011;42530;52.240;19.354;2022-12-08T06:58:54;28.88;;;25.92;;
56657;SDS011;42530;52.240;19.354;2022-12-08T07:01:20;26.75;;;22.02;;
56657;SDS011;42530;52.240;19.354;2022-12-08T07:03:45;24.42;;;21.95;;
56657;SDS011;42530;52.240;19.354;2022-12-08T07:06:15;23.92;;;21.58;;
56657;SDS011;42530;52.240;19.354;2022-12-08T07:08:44;27.33;;;21.52;;
56657;SDS011;42530;52.240;19.354;2022-12-08T07:11:10;25.73;;;21.02;;
56657;SDS011;42530;52.240;19.354;2022-12-08T07:13:36;27.65;;;23.02;;
56657;SDS011;42530;52.240;19.354;2022-12-08T07:16:06;22.10;;;19.65;;
56657;SDS011;42530;52.240;19.354;2022-12-08T07:18:33;22.27;;;19.98;;
56657;SDS011;42530;52.240;19.354;2022-12-08T07:21:06;22.63;;;19.58;;
56657;SDS011;42530;52.240;19.354;2022-12-08T07:23:34;21.85;;;17.45;;
56657;SDS011;42530;52.240;19.354;2022-12-08T07:26:00;22.42;;;18.85;;
56657;SDS011;42530;52.240;19.354;2022-12-08T07:28:30;24.58;;;19.55;;
56657;SDS011;42530;52.240;19.354;2022-12-08T07:30:57;21.95;;;18.65;;
56657;SDS011;42530;52.240;19.354;2022-12-08T07:33:23;21.10;;;18.63;;
56657;SDS011;42530;52.240;19.354;2022-12-08T07:35:55;22.60;;;19.63;;
56657;SDS011;42530;52.240;19.354;2022-12-08T07:38:25;22.60;;;20.27;;
56657;SDS011;42530;52.240;19.354;2022-12-08T07:40:52;20.00;;;17.77;;
56657;SDS011;42530;52.240;19.354;2022-12-08T07:43:19;21.40;;;18.48;;
56657;SDS011;42530;52.240;19.354;2022-12-08T07:45:45;21.23;;;18.27;;
56657;SDS011;42530;52.240;19.354;2022-12-08T07:48:11;19.58;;;16.05;;
56657;SDS011;42530;52.240;19.354;2022-12-08T07:50:36;20.02;;;14.43;;
56657;SDS011;42530;52.240;19.354;2022-12-08T07:53:03;19.60;;;14.52;;
56657;SDS011;42530;52.240;19.354;2022-12-08T07:55:28;16.83;;;14.48;;
56657;SDS011;42530;52.240;19.354;2022-12-08T07:57:54;14.18;;;12.77;;
56657;SDS011;42530;52.240;19.354;2022-12-08T08:00:19;18.48;;;14.27;;
56657;SDS011;42530;52.240;19.354;2022-12-08T08:02:45;17.05;;;14.30;;
56657;SDS011;42530;52.240;19.354;2022-12-08T08:05:11;20.02;;;15.65;;
56657;SDS011;42530;52.240;19.354;2022-12-08T08:07:37;20.27;;;16.85;;
56657;SDS011;42530;52.240;19.354;2022-12-08T08:10:04;20.50;;;17.50;;
56657;SDS011;42530;52.240;19.354;2022-12-08T08:12:30;17.67;;;16.02;;
56657;SDS011;42530;52.240;19.354;2022-12-08T08:14:56;20.63;;;16.40;;
56657;SDS011;42530;52.240;19.354;2022-12-08T08:17:22;20.40;;;16.02;;
56657;SDS011;42530;52.240;19.354;2022-12-08T08:19:47;20.23;;;17.67;;
56657;SDS011;42530;52.240;19.354;2022-12-08T08:22:13;24.90;;;19.85;;
56657;SDS011;42530;52.240;19.354;2022-12-08T08:24:38;17.38;;;14.40;;
56657;SDS011;42530;52.240;19.354;2022-12-08T08:27:04;19.63;;;16.65;;
56657;SDS011;42530;52.240;19.354;2022-12-08T08:29:29;24.85;;;14.55;;
56657;SDS011;42530;52.240;19.354;2022-12-08T08:31:54;15.05;;;13.63;;
56657;SDS011;42530;52.240;19.354;2022-12-08T08:34:20;18.85;;;16.00;;
56657;SDS011;42530;52.240;19.354;2022-12-08T08:36:45;16.58;;;13.68;;
56657;SDS011;42530;52.240;19.354;2022-12-08T08:39:11;15.73;;;14.07;;
56657;SDS011;42530;52.240;19.354;2022-12-08T08:41:37;17.80;;;14.65;;
56657;SDS011;42530;52.240;19.354;2022-12-08T08:44:03;21.45;;;17.13;;
56657;SDS011;42530;52.240;19.354;2022-12-08T08:46:29;17.92;;;15.68;;
56657;SDS011;42530;52.240;19.354;2022-12-08T08:48:54;17.83;;;15.93;;
56657;SDS011;42530;52.240;19.354;2022-12-08T08:51:20;18.58;;;15.88;;
56657;SDS011;42530;52.240;19.354;2022-12-08T08:53:45;18.23;;;14.95;;
56657;SDS011;42530;52.240;19.354;2022-12-08T08:56:12;17.23;;;15.50;;
56657;SDS011;42530;52.240;19.354;2022-12-08T08:58:39;16.10;;;14.52;;
56657;SDS011;42530;52.240;19.354;2022-12-08T09:01:05;18.88;;;15.65;;
56657;SDS011;42530;52.240;19.354;2022-12-08T09:03:30;14.82;;;13.45;;
56657;SDS011;42530;52.240;19.354;2022-12-08T09:05:56;17.75;;;15.65;;
56657;SDS011;42530;52.240;19.354;2022-12-08T09:08:22;15.20;;;12.93;;
56657;SDS011;42530;52.240;19.354;2022-12-08T09:10:47;15.32;;;13.52;;
56657;SDS011;42530;52.240;19.354;2022-12-08T09:13:13;17.55;;;14.88;;
56657;SDS011;42530;52.240;19.354;2022-12-08T09:15:38;16.80;;;15.02;;
56657;SDS011;42530;52.240;19.354;2022-12-08T09:18:04;17.95;;;15.27;;
56657;SDS011;42530;52.240;19.354;2022-12-08T09:20:31;19.80;;;15.90;;
56657;SDS011;42530;52.240;19.354;2022-12-08T09:22:57;22.33;;;15.13;;
56657;SDS011;42530;52.240;19.354;2022-12-08T09:25:22;19.08;;;16.20;;
56657;SDS011;42530;52.240;19.354;2022-12-08T09:27:48;21.25;;;16.25;;
56657;SDS011;42530;52.240;19.354;2022-12-08T09:30:14;18.85;;;17.02;;
56657;SDS011;42530;52.240;19.354;2022-12-08T09:32:40;21.85;;;17.30;;
56657;SDS011;42530;52.240;19.354;2022-12-08T09:35:05;17.17;;;15.32;;
56657;SDS011;42530;52.240;19.354;2022-12-08T09:37:31;20.25;;;18.45;;
56657;SDS011;42530;52.240;19.354;2022-12-08T09:39:57;17.25;;;14.95;;
56657;SDS011;42530;52.240;19.354;2022-12-08T09:42:32;19.88;;;15.70;;
56657;SDS011;42530;52.240;19.354;2022-12-08T09:45:11;19.38;;;17.50;;
56657;SDS011;42530;52.240;19.354;2022-12-08T09:47:41;20.55;;;18.45;;
56657;SDS011;42530;52.240;19.354;2022-12-08T09:53:02;20.98;;;18.42;;
56657;SDS011;42530;52.240;19.354;2022-12-08T09:55:51;22.30;;;19.88;;
56657;SDS011;42530;52.240;19.354;2022-12-08T10:01:14;22.98;;;20.52;;
56657;SDS011;42530;52.240;19.354;2022-12-08T10:03:40;23.42;;;19.42;;
56657;SDS011;42530;52.240;19.354;2022-12-08T10:06:09;25.40;;;18.58;;
56657;SDS011;42530;52.240;19.354;2022-12-08T10:08:47;22.35;;;19.42;;
56657;SDS011;42530;52.240;19.354;2022-12-08T10:11:25;21.15;;;18.92;;
56657;SDS011;42530;52.240;19.354;2022-12-08T10:16:51;21.38;;;19.27;;
56657;SDS011;42530;52.240;19.354;2022-12-08T10:19:22;28.73;;;24.13;;
56657;SDS011;42530;52.240;19.354;2022-12-08T10:21:51;23.17;;;20.13;;
56657;SDS011;42530;52.240;19.354;2022-12-08T10:26:50;23.92;;;21.33;;
56657;SDS011;42530;52.240;19.354;2022-12-08T10:29:15;26.70;;;23.92;;
56657;SDS011;42530;52.240;19.354;2022-12-08T10:31:41;24.63;;;22.05;;
56657;SDS011;42530;52.240;19.354;2022-12-08T10:34:17;25.83;;;22.67;;
56657;SDS011;42530;52.240;19.354;2022-12-08T10:42:19;24.85;;;21.40;;
56657;SDS011;42530;52.240;19.354;2022-12-08T10:45:02;26.95;;;24.13;;
56657;SDS011;42530;52.240;19.354;2022-12-08T10:47:28;23.75;;;21.30;;
56657;SDS011;42530;52.240;19.354;2022-12-08T10:50:07;26.17;;;21.08;;
56657;SDS011;42530;52.240;19.354;2022-12-08T10:52:45;24.70;;;20.35;;
56657;SDS011;42530;52.240;19.354;2022-12-08T10:55:19;25.10;;;22.48;;
56657;SDS011;42530;52.240;19.354;2022-12-08T10:57:45;26.35;;;23.42;;
56657;SDS011;42530;52.240;19.354;2022-12-08T11:00:19;16.73;;;15.00;;
56657;SDS011;42530;52.240;19.354;2022-12-08T11:02:51;22.30;;;19.75;;
56657;SDS011;42530;52.240;19.354;2022-12-08T11:05:22;21.02;;;17.98;;
56657;SDS011;42530;52.240;19.354;2022-12-08T11:07:52;25.88;;;21.98;;
56657;SDS011;42530;52.240;19.354;2022-12-08T11:10:20;23.10;;;20.63;;
56657;SDS011;42530;52.240;19.354;2022-12-08T11:12:53;32.25;;;28.13;;
56657;SDS011;42530;52.240;19.354;2022-12-08T11:15:19;36.15;;;32.70;;
56657;SDS011;42530;52.240;19.354;2022-12-08T11:17:45;25.90;;;23.25;;
56657;SDS011;42530;52.240;19.354;2022-12-08T11:20:26;30.42;;;27.33;;
56657;SDS011;42530;52.240;19.354;2022-12-08T11:23:01;33.00;;;29.30;;
56657;SDS011;42530;52.240;19.354;2022-12-08T11:25:28;30.52;;;27.52;;
56657;SDS011;42530;52.240;19.354;2022-12-08T11:27:56;28.23;;;25.17;;
56657;SDS011;42530;52.240;19.354;2022-12-08T11:33:34;29.40;;;26.02;;
56657;SDS011;42530;52.240;19.354;2022-12-08T11:38:29;33.28;;;29.05;;
56657;SDS011;42530;52.240;19.354;2022-12-08T11:41:04;36.15;;;32.53;;
56657;SDS011;42530;52.240;19.354;2022-12-08T11:45:59;34.75;;;31.13;;
56657;SDS011;42530;52.240;19.354;2022-12-08T11:48:29;28.60;;;25.50;;
56657;SDS011;42530;52.240;19.354;2022-12-08T11:51:01;25.65;;;22.95;;
56657;SDS011;42530;52.240;19.354;2022-12-08T11:56:31;31.63;;;28.65;;
56657;SDS011;42530;52.240;19.354;2022-12-08T11:59:06;31.65;;;28.08;;
56657;SDS011;42530;52.240;19.354;2022-12-08T12:01:39;34.40;;;30.33;;
56657;SDS011;42530;52.240;19.354;2022-12-08T12:09:13;39.58;;;33.88;;
56657;SDS011;42530;52.240;19.354;2022-12-08T12:20:31;87.88;;;77.68;;
56657;SDS011;42530;52.240;19.354;2022-12-08T12:23:06;57.40;;;51.45;;
56657;SDS011;42530;52.240;19.354;2022-12-08T12:25:37;37.33;;;33.45;;
56657;SDS011;42530;52.240;19.354;2022-12-08T12:28:14;34.47;;;31.17;;
56657;SDS011;42530;52.240;19.354;2022-12-08T12:33:28;41.03;;;36.70;;
56657;SDS011;42530;52.240;19.354;2022-12-08T12:35:56;51.58;;;46.42;;
56657;SDS011;42530;52.240;19.354;2022-12-08T12:38:29;36.97;;;33.25;;
56657;SDS011;42530;52.240;19.354;2022-12-08T12:41:24;32.47;;;28.73;;
56657;SDS011;42530;52.240;19.354;2022-12-08T12:55:28;35.05;;;31.50;;
56657;SDS011;42530;52.240;19.354;2022-12-08T12:57:37;31.02;;;27.95;;
56657;SDS011;42530;52.240;19.354;2022-12-08T13:00:17;35.78;;;32.17;;
56657;SDS011;42530;52.240;19.354;2022-12-08T13:10:18;36.53;;;30.75;;
56657;SDS011;42530;52.240;19.354;2022-12-08T13:15:35;28.48;;;25.25;;
56657;SDS011;42530;52.240;19.354;2022-12-08T13:18:03;31.88;;;28.55;;
56657;SDS011;42530;52.240;19.354;2022-12-08T13:20:30;31.33;;;28.05;;
56657;SDS011;42530;52.240;19.354;2022-12-08T13:25:50;41.95;;;36.75;;
56657;SDS011;42530;52.240;19.354;2022-12-08T13:28:21;34.63;;;31.05;;
56657;SDS011;42530;52.240;19.354;2022-12-08T13:30:52;34.05;;;30.88;;
56657;SDS011;42530;52.240;19.354;2022-12-08T13:33:23;37.13;;;32.88;;
56657;SDS011;42530;52.240;19.354;2022-12-08T13:36:02;35.63;;;30.63;;
56657;SDS011;42530;52.240;19.354;2022-12-08T13:38:37;42.17;;;34.47;;
56657;SDS011;42530;52.240;19.354;2022-12-08T13:41:06;31.00;;;26.70;;
56657;SDS011;42530;52.240;19.354;2022-12-08T13:43:40;31.35;;;28.13;;
56657;SDS011;42530;52.240;19.354;2022-12-08T13:46:12;34.72;;;30.98;;
56657;SDS011;42530;52.240;19.354;2022-12-08T13:51:25;40.90;;;35.88;;
56657;SDS011;42530;52.240;19.354;2022-12-08T13:56:28;66.38;;;51.92;;
56657;SDS011;42530;52.240;19.354;2022-12-08T14:02:04;45.95;;;38.70;;
56657;SDS011;42530;52.240;19.354;2022-12-08T14:04:42;38.75;;;34.55;;
56657;SDS011;42530;52.240;19.354;2022-12-08T14:07:08;38.83;;;34.83;;
56657;SDS011;42530;52.240;19.354;2022-12-08T14:09:36;43.72;;;37.65;;
56657;SDS011;42530;52.240;19.354;2022-12-08T14:14:50;42.40;;;37.92;;
56657;SDS011;42530;52.240;19.354;2022-12-08T14:17:21;40.65;;;35.28;;
56657;SDS011;42530;52.240;19.354;2022-12-08T14:22:19;38.55;;;33.67;;
56657;SDS011;42530;52.240;19.354;2022-12-08T14:24:49;47.95;;;39.55;;
56657;SDS011;42530;52.240;19.354;2022-12-08T14:27:17;42.33;;;35.95;;
56657;SDS011;42530;52.240;19.354;2022-12-08T14:29:55;32.92;;;29.77;;
56657;SDS011;42530;52.240;19.354;2022-12-08T14:37:21;39.38;;;35.15;;
56657;SDS011;42530;52.240;19.354;2022-12-08T14:39:49;36.22;;;32.55;;
56657;SDS011;42530;52.240;19.354;2022-12-08T14:42:19;37.90;;;31.83;;
56657;SDS011;42530;52.240;19.354;2022-12-08T14:44:47;35.20;;;31.65;;
56657;SDS011;42530;52.240;19.354;2022-12-08T14:47:17;36.15;;;32.25;;
56657;SDS011;42530;52.240;19.354;2022-12-08T14:49:43;37.85;;;33.38;;
56657;SDS011;42530;52.240;19.354;2022-12-08T14:52:12;38.85;;;34.47;;
56657;SDS011;42530;52.240;19.354;2022-12-08T14:54:38;42.72;;;38.58;;
56657;SDS011;42530;52.240;19.354;2022-12-08T14:57:08;38.40;;;34.40;;
56657;SDS011;42530;52.240;19.354;2022-12-08T14:59:37;43.60;;;38.95;;
56657;SDS011;42530;52.240;19.354;2022-12-08T15:05:10;47.78;;;37.90;;
56657;SDS011;42530;52.240;19.354;2022-12-08T15:07:50;49.97;;;39.92;;
56657;SDS011;42530;52.240;19.354;2022-12-08T15:10:19;46.92;;;41.60;;
56657;SDS011;42530;52.240;19.354;2022-12-08T15:13:01;42.53;;;38.13;;
56657;SDS011;42530;52.240;19.354;2022-12-08T15:15:30;42.47;;;38.33;;
56657;SDS011;42530;52.240;19.354;2022-12-08T15:18:14;39.13;;;35.38;;
56657;SDS011;42530;52.240;19.354;2022-12-08T15:23:20;41.50;;;36.95;;
56657;SDS011;42530;52.240;19.354;2022-12-08T15:25:48;41.53;;;36.92;;
56657;SDS011;42530;52.240;19.354;2022-12-08T15:28:16;41.15;;;35.83;;
56657;SDS011;42530;52.240;19.354;2022-12-08T15:30:44;38.92;;;35.00;;
56657;SDS011;42530;52.240;19.354;2022-12-08T15:33:10;36.85;;;33.13;;
56657;SDS011;42530;52.240;19.354;2022-12-08T15:35:35;36.13;;;32.75;;
56657;SDS011;42530;52.240;19.354;2022-12-08T15:38:01;39.63;;;35.38;;
56657;SDS011;42530;52.240;19.354;2022-12-08T15:40:26;39.13;;;35.47;;
56657;SDS011;42530;52.240;19.354;2022-12-08T15:42:52;40.00;;;35.35;;
56657;SDS011;42530;52.240;19.354;2022-12-08T15:45:17;40.25;;;36.17;;
56657;SDS011;42530;52.240;19.354;2022-12-08T15:47:49;40.30;;;35.55;;
56657;SDS011;42530;52.240;19.354;2022-12-08T15:50:16;44.30;;;39.63;;
56657;SDS011;42530;52.240;19.354;2022-12-08T15:52:43;47.65;;;40.60;;
56657;SDS011;42530;52.240;19.354;2022-12-08T15:55:12;45.25;;;40.67;;
56657;SDS011;42530;52.240;19.354;2022-12-08T15:57:39;42.35;;;35.00;;
56657;SDS011;42530;52.240;19.354;2022-12-08T16:02:40;49.53;;;40.63;;
56657;SDS011;42530;52.240;19.354;2022-12-08T16:05:06;45.00;;;37.65;;
56657;SDS011;42530;52.240;19.354;2022-12-08T16:07:32;44.78;;;40.22;;
56657;SDS011;42530;52.240;19.354;2022-12-08T16:10:02;43.55;;;39.00;;
56657;SDS011;42530;52.240;19.354;2022-12-08T16:12:28;45.58;;;40.85;;
56657;SDS011;42530;52.240;19.354;2022-12-08T16:15:12;48.13;;;43.03;;
56657;SDS011;42530;52.240;19.354;2022-12-08T16:17:38;46.75;;;40.83;;
56657;SDS011;42530;52.240;19.354;2022-12-08T16:20:09;41.60;;;37.15;;
56657;SDS011;42530;52.240;19.354;2022-12-08T16:22:37;45.55;;;40.88;;